Vremea acum in Cavnic - Romania

Vrei sa afli care e starea vremii acum in Maramures - Romania? Dorim sa iti furnizam starea vremii pentru Maramures - Romania. Starea vremii Maramures - Romania pentru astazi.

Vremea acum in Cavnic

Temperatura: 6.2 °C

Este: Senin
Se simte ca: 5.8 °C
Innorat: 14 %
Precipitatii: 0 %
Presiune atmosferica: 1020 hPa
Umiditate: 84%
Vizibilitate: 10 km
Vantul bate din NE cu 4 km/h

Evolutia vremii in Cavnic pe ore

Ora: 06:00
Senin
Temperatura: 5.7°C
Sansa de precipitatii: 0%
Ora Descriere Temp Se simte Precipitatii Umiditate Vant
00:00Senin7.2°6.6°0%79%NE 5 KM/H
01:00Senin7.1°6.7°0%80%NE 4.3 KM/H
02:00Senin6.7°6.5°0%81%NE 4 KM/H
03:00Senin6.4°5.9°0%82%NE 4.3 KM/H
04:00Senin6.2°5.8°0%84%NE 4 KM/H
05:00Senin5.9°5.9°0%85%NE 3.2 KM/H
06:00Senin5.7°5.6°0%85%ENE 3.2 KM/H
07:00Senin6.7°6.6°0%82%E 3.6 KM/H
08:00Senin11.4°11.4°0%73%ESE 0.7 KM/H
09:00Senin13.8°14.4°0%65%WNW 4 KM/H
10:00Senin15.8°15.8°0%59%WNW 5.4 KM/H
11:00Senin17.6°17.6°0%54%WNW 6.5 KM/H
12:00Senin19°19°0%50%WNW 7.9 KM/H
13:00Senin20°20°0%48%WNW 9.4 KM/H
14:00Senin20.8°20.8°0%46%WNW 10.8 KM/H
15:00Senin21.1°21.1°0%46%WNW 11.9 KM/H
16:00Senin21°21°0%47%NW 13.7 KM/H
17:00Senin20.6°20.6°0%49%NW 13.7 KM/H
18:00Senin19.9°19.9°0%53%NW 10.8 KM/H
19:00Senin18.7°18.7°0%62%NW 7.6 KM/H
20:00Senin13.9°14.1°0%72%NNW 5.8 KM/H
21:00Senin11.6°11.5°0%76%NNE 5.4 KM/H
22:00Senin10.9°10.7°0%77%NE 5.4 KM/H
23:00Senin10.6°10.3°0%76%ENE 5.8 KM/H




tutorials